createdAt,value
2022-08-28T00:06:45.971Z,18
2022-08-28T00:16:48.514Z,19
2022-08-28T00:26:51.127Z,19
2022-08-28T00:36:53.654Z,20
2022-08-28T00:47:02.172Z,19
2022-08-28T00:57:02.113Z,18
2022-08-28T01:07:04.617Z,19
2022-08-28T01:17:07.251Z,18
2022-08-28T01:27:11.486Z,18
2022-08-28T01:37:14.934Z,18
2022-08-28T01:47:16.271Z,17
2022-08-28T01:57:21.401Z,17
2022-08-28T02:07:22.274Z,17
2022-08-28T02:17:26.505Z,16
2022-08-28T02:27:28.122Z,17
2022-08-28T02:37:30.614Z,17
2022-08-28T02:47:32.827Z,16
2022-08-28T02:57:35.495Z,17
2022-08-28T03:07:38.532Z,17
2022-08-28T03:17:42.939Z,17
2022-08-28T03:27:44.886Z,18
2022-08-28T03:37:49.243Z,17
2022-08-28T03:47:51.071Z,18
2022-08-28T03:57:53.805Z,19
2022-08-28T04:07:58.313Z,17
2022-08-28T04:18:01.688Z,19
2022-08-28T04:28:03.926Z,18
2022-08-28T04:38:08.528Z,17
2022-08-28T04:48:13.011Z,18
2022-08-28T04:58:14.032Z,18
2022-08-28T05:08:18.599Z,18
2022-08-28T05:18:22.585Z,17
2022-08-28T05:28:25.075Z,16
2022-08-28T05:38:28.849Z,17
2022-08-28T05:48:32.870Z,16
2022-08-28T05:58:39.385Z,16
2022-08-28T06:08:56.105Z,16
2022-08-28T06:19:08.105Z,16
2022-08-28T06:29:10.305Z,15
2022-08-28T06:39:21.304Z,16
2022-08-28T06:49:23.096Z,16
2022-08-28T06:59:25.851Z,14
2022-08-28T07:09:31.710Z,16
2022-08-28T07:19:38.373Z,16
2022-08-28T07:29:49.961Z,17
2022-08-28T07:39:53.735Z,15
2022-08-28T07:49:56.570Z,15
2022-08-28T07:59:59.588Z,15
2022-08-28T08:10:05.114Z,16
2022-08-28T08:20:09.626Z,16
2022-08-28T08:30:09.632Z,16
2022-08-28T08:40:11.867Z,16
2022-08-28T08:50:15.139Z,16
2022-08-28T09:00:18.532Z,17
2022-08-28T09:10:22.729Z,16
2022-08-28T09:20:32.546Z,16
2022-08-28T09:30:33.956Z,17
2022-08-28T09:40:40.032Z,15
2022-08-28T09:50:46.980Z,15
2022-08-28T10:00:50.621Z,16
2022-08-28T10:10:55.293Z,15
2022-08-28T10:21:04.226Z,15
2022-08-28T10:31:04.335Z,16
2022-08-28T10:41:07.295Z,15
2022-08-28T10:51:12.768Z,14
2022-08-28T11:01:17.892Z,15
2022-08-28T11:11:21.260Z,15
2022-08-28T11:21:26.103Z,15
2022-08-28T11:31:30.836Z,15
2022-08-28T11:41:30.199Z,15
2022-08-28T11:51:34.608Z,14
2022-08-28T12:01:37.277Z,14
2022-08-28T12:11:40.937Z,15
2022-08-28T12:21:42.986Z,14
2022-08-28T12:31:46.865Z,13
2022-08-28T12:41:49.917Z,14
2022-08-28T12:51:53.189Z,14
2022-08-28T13:01:55.748Z,13
2022-08-28T13:12:03.489Z,14
2022-08-28T13:22:04.234Z,13
2022-08-28T13:32:07.526Z,14
2022-08-28T13:42:10.659Z,13
2022-08-28T13:52:17.728Z,13
2022-08-28T14:02:19.357Z,12
2022-08-28T14:12:21.106Z,13
2022-08-28T14:22:38.350Z,13
2022-08-28T14:32:40.834Z,13
2022-08-28T14:42:43.462Z,13
2022-08-28T14:52:45.925Z,14
2022-08-28T15:02:50.056Z,12
2022-08-28T15:13:05.116Z,13
2022-08-28T15:23:08.690Z,13
2022-08-28T15:33:09.114Z,13
2022-08-28T15:43:11.208Z,13
2022-08-28T15:53:13.452Z,14
2022-08-28T16:03:20.368Z,14
2022-08-28T16:13:21.213Z,13
2022-08-28T16:23:23.626Z,13
2022-08-28T16:33:25.880Z,13
2022-08-28T16:43:28.926Z,13
2022-08-28T16:53:31.561Z,14
2022-08-28T17:03:34.382Z,13
2022-08-28T17:13:37.097Z,13
2022-08-28T17:23:43.801Z,15
2022-08-28T17:33:44.666Z,13
2022-08-28T17:43:51.471Z,14
2022-08-28T17:53:52.756Z,13
2022-08-28T18:03:55.597Z,13
2022-08-28T18:13:58.486Z,14
2022-08-28T18:23:59.761Z,14
2022-08-28T18:34:03.701Z,14
2022-08-28T18:44:05.129Z,14
2022-08-28T18:54:13.219Z,14
2022-08-28T19:04:15.262Z,14
2022-08-28T19:14:18.693Z,14
2022-08-28T19:24:21.898Z,13
2022-08-28T19:34:23.970Z,13
2022-08-28T19:44:28.553Z,13
2022-08-28T19:54:30.188Z,14
2022-08-28T20:04:34.526Z,13
2022-08-28T20:14:36.189Z,12
2022-08-28T20:24:44.707Z,13
2022-08-28T20:34:45.716Z,13
2022-08-28T20:44:49.266Z,13
2022-08-28T20:54:52.690Z,12
2022-08-28T21:04:56.051Z,13
2022-08-28T21:15:17.319Z,13
2022-08-28T21:25:19.527Z,14
2022-08-28T21:35:23.601Z,13
2022-08-28T21:45:26.908Z,12
2022-08-28T21:55:28.464Z,13
2022-08-28T22:05:32.568Z,13
2022-08-28T22:15:34.581Z,13
2022-08-28T22:25:40.968Z,12
2022-08-28T22:35:41.323Z,13
2022-08-28T22:45:45.760Z,13
2022-08-28T22:55:49.454Z,13
2022-08-28T23:05:52.844Z,13
2022-08-28T23:15:55.042Z,13
2022-08-28T23:25:58.787Z,12
2022-08-28T23:36:03.559Z,12
2022-08-28T23:46:06.962Z,12
2022-08-28T23:56:09.104Z,13
